Time;durP1;ratioP1;P1;durP2;ratioP2;P2;SDS_P1;SDS_P2;PMS_P1;PMS_P2;Temp;Humidity;BMP_temperature;BMP_pressure;BME280_temperature;BME280_humidity;BME280_pressure;Samples;Min_cycle;Max_cycle;Signal;HPM_P1;HPM_P2
2024/02/13 00:00:12;;;;;;;12.52;3.63;;;;;;;;;;5073236;28;20638;-27
2024/02/13 00:02:38;;;;;;;8.98;3.38;;;;;;;;;;5073403;28;20370;-27
2024/02/13 00:05:07;;;;;;;11.07;3.50;;;;;;;;;;5073372;28;20009;-27
2024/02/13 00:07:32;;;;;;;10.15;3.60;;;;;;;;;;5072856;28;20101;-27
2024/02/13 00:09:57;;;;;;;10.27;3.88;;;;;;;;;;5073818;28;20052;-27
2024/02/13 00:12:23;;;;;;;10.03;3.20;;;;;;;;;;5072901;28;20092;-27
2024/02/13 00:14:48;;;;;;;11.75;3.90;;;;;;;;;;5073262;28;20251;-28
2024/02/13 00:17:14;;;;;;;11.38;3.30;;;;;;;;;;5073173;28;20028;-27
2024/02/13 00:19:40;;;;;;;7.82;3.47;;;;;;;;;;5073378;28;20081;-27
2024/02/13 00:22:05;;;;;;;8.20;3.30;;;;;;;;;;5072983;28;20088;-29
2024/02/13 00:24:33;;;;;;;10.05;3.70;;;;;;;;;;5074818;28;20265;-28
2024/02/13 00:26:59;;;;;;;6.22;3.33;;;;;;;;;;5076663;28;20103;-28
2024/02/13 00:29:24;;;;;;;10.20;3.78;;;;;;;;;;5076870;28;20047;-28
2024/02/13 00:31:50;;;;;;;10.47;3.47;;;;;;;;;;5076486;28;20425;-28
2024/02/13 00:34:17;;;;;;;13.77;4.10;;;;;;;;;;5076439;28;20287;-28
2024/02/13 00:36:44;;;;;;;8.30;3.92;;;;;;;;;;5076740;28;20021;-28
2024/02/13 00:39:09;;;;;;;9.90;3.70;;;;;;;;;;5076662;28;20099;-28
2024/02/13 00:41:35;;;;;;;11.07;4.30;;;;;;;;;;5076430;28;20116;-28
2024/02/13 00:44:01;;;;;;;15.38;4.68;;;;;;;;;;5076892;28;20242;-28
2024/02/13 00:46:26;;;;;;;11.57;4.47;;;;;;;;;;5076495;28;20013;-28
2024/02/13 00:48:52;;;;;;;7.17;4.07;;;;;;;;;;5076268;28;20088;-28
2024/02/13 00:51:17;;;;;;;13.48;4.30;;;;;;;;;;5076189;28;20258;-28
2024/02/13 00:53:42;;;;;;;11.70;4.65;;;;;;;;;;5076462;28;20020;-28
2024/02/13 00:56:07;;;;;;;15.48;5.30;;;;;;;;;;5076401;28;20477;-29
2024/02/13 00:58:36;;;;;;;12.77;5.60;;;;;;;;;;5076055;28;20472;-28
2024/02/13 01:01:03;;;;;;;14.85;5.70;;;;;;;;;;5076492;28;20024;-28
2024/02/13 01:03:29;;;;;;;13.38;6.38;;;;;;;;;;5076245;28;20368;-28
2024/02/13 01:05:54;;;;;;;17.25;6.28;;;;;;;;;;5076042;28;20181;-28
2024/02/13 01:08:23;;;;;;;12.13;6.43;;;;;;;;;;5076408;28;20059;-30
2024/02/13 01:10:49;;;;;;;16.40;7.25;;;;;;;;;;5076088;28;20262;-30
2024/02/13 01:13:15;;;;;;;13.88;7.20;;;;;;;;;;5075693;28;20380;-28
2024/02/13 01:15:40;;;;;;;16.35;7.28;;;;;;;;;;5075747;28;20017;-28
2024/02/13 01:18:06;;;;;;;14.52;7.80;;;;;;;;;;5075578;28;20108;-28
2024/02/13 01:20:31;;;;;;;20.10;8.55;;;;;;;;;;5075924;28;20024;-28
2024/02/13 01:22:56;;;;;;;17.10;8.15;;;;;;;;;;5075619;28;20012;-28
2024/02/13 01:25:22;;;;;;;23.00;8.73;;;;;;;;;;5076179;28;20024;-28
2024/02/13 01:27:47;;;;;;;20.50;9.18;;;;;;;;;;5075853;28;20271;-28
2024/02/13 01:30:13;;;;;;;21.52;9.52;;;;;;;;;;5075740;28;20017;-28
2024/02/13 01:32:40;;;;;;;18.27;9.73;;;;;;;;;;5076309;28;20513;-28
2024/02/13 01:35:05;;;;;;;21.42;10.40;;;;;;;;;;5074828;28;20016;-28
2024/02/13 01:37:31;;;;;;;20.30;9.90;;;;;;;;;;5075136;28;20028;-28
2024/02/13 01:39:56;;;;;;;20.30;11.50;;;;;;;;;;5075206;28;20017;-28
2024/02/13 01:42:21;;;;;;;20.23;9.93;;;;;;;;;;5075215;28;20012;-28
2024/02/13 01:44:47;;;;;;;19.52;10.75;;;;;;;;;;5075208;28;20016;-28
2024/02/13 01:47:12;;;;;;;22.07;10.13;;;;;;;;;;5075209;28;20456;-28
2024/02/13 01:49:38;;;;;;;24.65;11.05;;;;;;;;;;5075068;28;20342;-28
2024/02/13 01:52:04;;;;;;;21.13;10.32;;;;;;;;;;5075058;28;20028;-28
2024/02/13 01:54:30;;;;;;;18.48;10.75;;;;;;;;;;5075719;28;20058;-28
2024/02/13 01:56:55;;;;;;;23.08;10.63;;;;;;;;;;5075533;28;20027;-28
2024/02/13 01:59:22;;;;;;;25.30;11.60;;;;;;;;;;5075084;28;20099;-28
2024/02/13 02:01:47;;;;;;;19.95;11.88;;;;;;;;;;5074880;28;20021;-28
2024/02/13 02:04:14;;;;;;;20.98;11.48;;;;;;;;;;5075051;28;20509;-28
2024/02/13 02:06:40;;;;;;;20.38;11.10;;;;;;;;;;5074720;28;20044;-28
2024/02/13 02:09:05;;;;;;;21.50;11.23;;;;;;;;;;5074978;28;20032;-28
2024/02/13 02:11:31;;;;;;;23.77;11.20;;;;;;;;;;5074522;28;20036;-28
2024/02/13 02:13:56;;;;;;;23.63;11.45;;;;;;;;;;5074972;28;20066;-28
2024/02/13 02:16:21;;;;;;;23.00;11.20;;;;;;;;;;5075088;28;20016;-28
2024/02/13 02:18:47;;;;;;;20.43;11.17;;;;;;;;;;5074809;28;20017;-28
2024/02/13 02:21:13;;;;;;;19.13;11.43;;;;;;;;;;5074414;28;20278;-28
2024/02/13 02:23:38;;;;;;;23.42;10.98;;;;;;;;;;5074595;28;20262;-28
2024/02/13 02:26:03;;;;;;;21.75;10.75;;;;;;;;;;5074920;28;20005;-28
2024/02/13 02:28:28;;;;;;;21.63;10.97;;;;;;;;;;5074300;28;20025;-28
2024/02/13 02:30:54;;;;;;;19.25;11.07;;;;;;;;;;5074318;28;20255;-28
2024/02/13 02:33:19;;;;;;;23.65;11.50;;;;;;;;;;5072936;28;20398;-28
2024/02/13 02:35:45;;;;;;;24.30;11.27;;;;;;;;;;5074535;28;20064;-28
2024/02/13 02:38:10;;;;;;;26.52;10.98;;;;;;;;;;5074165;28;20021;-28
2024/02/13 02:40:35;;;;;;;21.42;11.88;;;;;;;;;;5074037;28;20054;-29
2024/02/13 02:43:02;;;;;;;25.23;11.63;;;;;;;;;;5074562;28;20052;-28
2024/02/13 02:45:27;;;;;;;24.10;11.68;;;;;;;;;;5074349;28;20009;-28
2024/02/13 02:47:52;;;;;;;20.25;11.68;;;;;;;;;;5074036;28;20379;-28
2024/02/13 02:50:18;;;;;;;22.63;11.30;;;;;;;;;;5074459;28;20024;-28
2024/02/13 02:52:43;;;;;;;20.27;10.20;;;;;;;;;;5074472;28;20024;-28
2024/02/13 02:55:08;;;;;;;19.67;10.90;;;;;;;;;;5074178;28;20337;-28
2024/02/13 02:57:34;;;;;;;18.60;10.23;;;;;;;;;;5073774;28;20119;-28
2024/02/13 03:00:00;;;;;;;18.05;10.90;;;;;;;;;;5073821;28;20029;-28
2024/02/13 03:02:25;;;;;;;20.50;10.95;;;;;;;;;;5073208;28;20643;-28
2024/02/13 03:04:50;;;;;;;18.20;10.83;;;;;;;;;;5073187;28;20019;-28
2024/02/13 03:07:15;;;;;;;21.30;11.27;;;;;;;;;;5072684;28;20312;-28
2024/02/13 03:09:40;;;;;;;18.05;10.70;;;;;;;;;;5072765;28;20298;-28
2024/02/13 03:12:06;;;;;;;17.93;11.10;;;;;;;;;;5072945;28;20020;-28
2024/02/13 03:14:31;;;;;;;17.50;10.70;;;;;;;;;;5073398;28;20262;-28
2024/02/13 03:16:56;;;;;;;19.33;10.73;;;;;;;;;;5074136;28;20048;-28
2024/02/13 03:19:21;;;;;;;18.55;10.50;;;;;;;;;;5073438;28;20251;-28
2024/02/13 03:21:46;;;;;;;17.80;10.67;;;;;;;;;;5074022;28;20020;-28
2024/02/13 03:24:11;;;;;;;16.63;10.90;;;;;;;;;;5073443;28;20255;-28
2024/02/13 03:26:37;;;;;;;20.13;11.10;;;;;;;;;;5073939;28;20298;-28
2024/02/13 03:29:02;;;;;;;19.70;10.60;;;;;;;;;;5073412;28;20711;-28
2024/02/13 03:31:27;;;;;;;22.23;10.38;;;;;;;;;;5073666;28;20321;-28
2024/02/13 03:33:52;;;;;;;16.92;10.95;;;;;;;;;;5073363;28;20016;-28
2024/02/13 03:36:19;;;;;;;24.80;10.87;;;;;;;;;;5073408;28;20051;-28
2024/02/13 03:38:45;;;;;;;21.17;11.18;;;;;;;;;;5073308;28;20263;-28
2024/02/13 03:41:10;;;;;;;22.70;10.75;;;;;;;;;;5073714;28;20020;-28
2024/02/13 03:43:36;;;;;;;20.83;10.13;;;;;;;;;;5073654;28;20044;-28
2024/02/13 03:46:02;;;;;;;17.52;10.32;;;;;;;;;;5073538;28;20016;-28
2024/02/13 03:48:27;;;;;;;15.23;10.48;;;;;;;;;;5073261;28;20020;-28
2024/02/13 03:50:52;;;;;;;19.50;10.10;;;;;;;;;;5073512;28;20145;-28
2024/02/13 03:53:17;;;;;;;24.25;9.90;;;;;;;;;;5073426;28;20263;-28
2024/02/13 03:55:43;;;;;;;18.80;10.57;;;;;;;;;;5073664;28;20025;-28
2024/02/13 03:58:08;;;;;;;20.00;9.87;;;;;;;;;;5073213;28;20714;-28
2024/02/13 04:00:33;;;;;;;22.50;10.57;;;;;;;;;;5076906;28;20279;-28
2024/02/13 04:02:58;;;;;;;15.07;10.05;;;;;;;;;;5077463;28;20290;-28
2024/02/13 04:05:24;;;;;;;24.42;9.95;;;;;;;;;;5076921;28;20013;-28
2024/02/13 04:07:49;;;;;;;25.77;10.05;;;;;;;;;;5077334;28;20073;-28
2024/02/13 04:10:15;;;;;;;19.93;10.53;;;;;;;;;;5076989;28;20031;-28
2024/02/13 04:12:40;;;;;;;17.50;9.95;;;;;;;;;;5076848;28;20255;-28
2024/02/13 04:15:05;;;;;;;16.42;9.35;;;;;;;;;;5076858;28;20054;-28
2024/02/13 04:17:31;;;;;;;18.23;9.57;;;;;;;;;;5076861;28;20052;-28
2024/02/13 04:19:56;;;;;;;18.48;9.40;;;;;;;;;;5077292;28;20506;-28
2024/02/13 04:22:21;;;;;;;17.98;10.02;;;;;;;;;;5077055;28;20017;-28
2024/02/13 04:24:47;;;;;;;18.92;10.07;;;;;;;;;;5077230;28;20083;-28
2024/02/13 04:27:12;;;;;;;18.20;8.90;;;;;;;;;;5077034;28;20020;-28
2024/02/13 04:29:40;;;;;;;16.25;8.82;;;;;;;;;;5076646;28;20020;-28
2024/02/13 04:32:05;;;;;;;18.38;9.48;;;;;;;;;;5076588;28;20035;-28
2024/02/13 04:34:30;;;;;;;16.15;9.32;;;;;;;;;;5076495;28;20363;-28
2024/02/13 04:36:55;;;;;;;21.58;9.45;;;;;;;;;;5076768;28;20044;-28
2024/02/13 04:39:21;;;;;;;16.87;9.67;;;;;;;;;;5076653;28;20423;-28
2024/02/13 04:41:46;;;;;;;21.67;9.23;;;;;;;;;;5076375;28;20265;-28
2024/02/13 04:44:12;;;;;;;16.70;9.55;;;;;;;;;;5076617;28;20090;-28
2024/02/13 04:46:39;;;;;;;17.27;9.05;;;;;;;;;;5076624;28;20070;-28
2024/02/13 04:49:05;;;;;;;16.70;9.55;;;;;;;;;;5076224;28;20024;-28
2024/02/13 04:51:30;;;;;;;25.35;9.00;;;;;;;;;;5076451;28;20029;-28
2024/02/13 04:53:55;;;;;;;21.07;9.03;;;;;;;;;;5076177;28;20039;-28
2024/02/13 04:56:20;;;;;;;17.45;9.07;;;;;;;;;;5076010;28;20258;-28
2024/02/13 04:58:46;;;;;;;16.60;9.47;;;;;;;;;;5076680;28;20054;-28
2024/02/13 05:01:13;;;;;;;15.43;8.68;;;;;;;;;;5076453;28;20314;-28
2024/02/13 05:08:56;;;;;;;16.17;8.75;;;;;;;;;;5076468;28;20090;-28
2024/02/13 05:11:22;;;;;;;16.97;8.73;;;;;;;;;;5076291;28;20025;-28
2024/02/13 05:13:47;;;;;;;17.48;8.57;;;;;;;;;;5075768;28;20270;-28
2024/02/13 05:16:13;;;;;;;16.60;9.00;;;;;;;;;;5076317;28;20012;-28
2024/02/13 05:18:38;;;;;;;20.50;9.10;;;;;;;;;;5075977;28;20032;-28
2024/02/13 05:21:04;;;;;;;16.77;8.85;;;;;;;;;;5075838;28;20274;-28
2024/02/13 05:23:29;;;;;;;16.80;8.65;;;;;;;;;;5075598;28;20357;-28
2024/02/13 05:25:54;;;;;;;17.92;8.68;;;;;;;;;;5075657;28;20005;-28
2024/02/13 05:28:20;;;;;;;17.05;8.90;;;;;;;;;;5076075;28;20016;-28
2024/02/13 05:30:45;;;;;;;22.50;9.30;;;;;;;;;;5075760;28;20024;-28
2024/02/13 05:33:11;;;;;;;18.23;9.30;;;;;;;;;;5075410;28;20377;-28
2024/02/13 05:35:38;;;;;;;18.52;8.85;;;;;;;;;;5075675;28;20259;-29
2024/02/13 05:38:03;;;;;;;17.80;8.90;;;;;;;;;;5075608;28;20025;-29
2024/02/13 05:40:29;;;;;;;30.30;10.15;;;;;;;;;;5075786;28;20028;-29
2024/02/13 05:42:54;;;;;;;17.85;8.35;;;;;;;;;;5075571;28;20012;-28
2024/02/13 05:45:20;;;;;;;18.90;8.40;;;;;;;;;;5075452;28;20055;-28
2024/02/13 05:47:45;;;;;;;19.38;8.85;;;;;;;;;;5075489;28;20456;-28
2024/02/13 05:50:11;;;;;;;20.02;8.82;;;;;;;;;;5075062;28;20028;-28
2024/02/13 05:52:37;;;;;;;21.23;9.35;;;;;;;;;;5075124;28;20028;-28
2024/02/13 05:55:03;;;;;;;17.83;8.88;;;;;;;;;;5075028;28;20017;-28
2024/02/13 05:57:30;;;;;;;15.32;8.85;;;;;;;;;;5075243;28;20026;-28
2024/02/13 05:59:56;;;;;;;18.80;8.57;;;;;;;;;;5075066;28;20024;-29
2024/02/13 06:02:22;;;;;;;16.45;8.57;;;;;;;;;;5074864;28;20026;-28
2024/02/13 06:04:48;;;;;;;20.35;9.05;;;;;;;;;;5075193;28;20058;-29
2024/02/13 06:07:13;;;;;;;20.42;8.90;;;;;;;;;;5074873;28;20040;-28
2024/02/13 06:09:39;;;;;;;19.13;8.30;;;;;;;;;;5074700;28;20529;-28
2024/02/13 06:12:06;;;;;;;16.50;8.38;;;;;;;;;;5074930;28;20020;-28
2024/02/13 06:14:32;;;;;;;17.42;8.68;;;;;;;;;;5074856;28;20020;-28
2024/02/13 06:16:57;;;;;;;19.58;9.45;;;;;;;;;;5074596;28;20021;-28
2024/02/13 06:19:24;;;;;;;23.38;8.52;;;;;;;;;;5072954;28;20028;-28
2024/02/13 06:21:50;;;;;;;22.92;7.57;;;;;;;;;;5073941;28;20012;-28
2024/02/13 06:24:15;;;;;;;17.55;8.07;;;;;;;;;;5074673;28;20012;-29
2024/02/13 06:26:40;;;;;;;20.60;8.70;;;;;;;;;;5074415;28;20546;-28
2024/02/13 06:29:06;;;;;;;20.90;8.27;;;;;;;;;;5074281;28;20255;-28
2024/02/13 06:31:35;;;;;;;22.88;8.90;;;;;;;;;;5074828;28;20024;-28
2024/02/13 06:34:00;;;;;;;15.82;7.65;;;;;;;;;;5074216;28;20047;-28
2024/02/13 06:36:26;;;;;;;16.37;8.33;;;;;;;;;;5074530;28;20029;-28
2024/02/13 06:38:52;;;;;;;16.58;8.27;;;;;;;;;;5074729;28;20312;-28
2024/02/13 06:41:17;;;;;;;23.85;8.60;;;;;;;;;;5074254;28;20618;-28
2024/02/13 06:43:42;;;;;;;17.13;8.67;;;;;;;;;;5074561;28;20052;-28
2024/02/13 06:46:09;;;;;;;18.00;7.70;;;;;;;;;;5073989;28;20596;-28
2024/02/13 06:48:34;;;;;;;17.90;8.38;;;;;;;;;;5073884;28;20265;-28
2024/02/13 06:51:00;;;;;;;19.58;8.63;;;;;;;;;;5073862;28;20017;-28
2024/02/13 06:53:25;;;;;;;18.90;8.67;;;;;;;;;;5074296;28;20096;-28
2024/02/13 06:55:50;;;;;;;18.10;8.75;;;;;;;;;;5074013;28;20266;-28
2024/02/13 06:58:17;;;;;;;16.43;8.40;;;;;;;;;;5073645;28;20020;-28
2024/02/13 07:00:42;;;;;;;23.90;8.25;;;;;;;;;;5074200;28;20332;-28
2024/02/13 07:03:07;;;;;;;16.30;8.38;;;;;;;;;;5074221;28;20337;-28
2024/02/13 07:05:33;;;;;;;22.45;8.82;;;;;;;;;;5073971;28;20027;-28
2024/02/13 07:07:58;;;;;;;18.88;8.32;;;;;;;;;;5073919;28;20024;-28
2024/02/13 07:10:23;;;;;;;19.30;7.73;;;;;;;;;;5073566;28;20119;-28
2024/02/13 07:12:48;;;;;;;17.75;8.07;;;;;;;;;;5073658;28;20602;-28
2024/02/13 07:15:14;;;;;;;19.43;8.77;;;;;;;;;;5073501;28;20017;-28
2024/02/13 07:17:39;;;;;;;28.77;8.80;;;;;;;;;;5073762;28;20286;-28
2024/02/13 07:20:05;;;;;;;19.30;8.10;;;;;;;;;;5073909;28;20021;-28
2024/02/13 07:22:30;;;;;;;16.08;7.65;;;;;;;;;;5072258;28;20024;-28
2024/02/13 07:24:55;;;;;;;20.10;8.90;;;;;;;;;;5071342;28;20460;-28
2024/02/13 07:27:20;;;;;;;15.97;8.33;;;;;;;;;;5071311;28;20289;-28
2024/02/13 07:29:46;;;;;;;14.27;8.00;;;;;;;;;;5071402;28;20262;-28
2024/02/13 07:32:11;;;;;;;23.90;7.75;;;;;;;;;;5071587;28;20017;-28
2024/02/13 07:34:42;;;;;;;19.58;7.80;;;;;;;;;;5070410;28;20107;-29
2024/02/13 07:37:07;;;;;;;16.83;7.57;;;;;;;;;;5071738;28;20032;-29
2024/02/13 07:39:33;;;;;;;15.07;7.00;;;;;;;;;;5072586;28;20464;-29
2024/02/13 07:41:58;;;;;;;13.65;6.50;;;;;;;;;;5071426;28;20021;-29
2024/02/13 07:44:23;;;;;;;19.10;7.28;;;;;;;;;;5071287;28;20016;-28
2024/02/13 07:46:49;;;;;;;14.10;6.78;;;;;;;;;;5071589;28;20545;-28
2024/02/13 07:49:14;;;;;;;14.48;6.97;;;;;;;;;;5071199;28;20025;-28
2024/02/13 07:51:40;;;;;;;11.90;6.82;;;;;;;;;;5070949;28;20028;-28
2024/02/13 07:54:05;;;;;;;17.25;7.22;;;;;;;;;;5071171;28;20031;-29
2024/02/13 07:56:30;;;;;;;16.00;7.15;;;;;;;;;;5073283;28;20017;-28
2024/02/13 07:58:57;;;;;;;16.17;7.45;;;;;;;;;;5073045;28;20015;-28
2024/02/13 08:01:22;;;;;;;15.48;6.80;;;;;;;;;;5073211;28;20024;-29
2024/02/13 08:03:48;;;;;;;18.63;6.88;;;;;;;;;;5071719;28;20016;-29
2024/02/13 08:06:13;;;;;;;17.20;5.93;;;;;;;;;;5073107;28;20079;-29
2024/02/13 08:08:38;;;;;;;14.80;5.90;;;;;;;;;;5073071;28;20044;-29
2024/02/13 08:11:04;;;;;;;18.63;6.27;;;;;;;;;;5072857;28;20285;-28
2024/02/13 08:13:30;;;;;;;13.25;5.57;;;;;;;;;;5072904;28;20262;-28
2024/02/13 08:15:55;;;;;;;12.23;5.13;;;;;;;;;;5073269;28;20016;-29
2024/02/13 08:18:20;;;;;;;16.57;5.20;;;;;;;;;;5073481;28;20021;-29
2024/02/13 08:20:45;;;;;;;12.25;5.45;;;;;;;;;;5072883;28;20275;-29
2024/02/13 08:23:11;;;;;;;12.23;5.13;;;;;;;;;;5073112;28;20017;-29
2024/02/13 08:25:36;;;;;;;15.70;5.00;;;;;;;;;;5072804;28;20296;-30
2024/02/13 08:28:01;;;;;;;9.10;4.70;;;;;;;;;;5073380;28;20048;-29
2024/02/13 08:30:28;;;;;;;13.57;4.80;;;;;;;;;;5072746;28;20270;-30
2024/02/13 08:32:53;;;;;;;10.88;4.90;;;;;;;;;;5073895;28;20401;-29
2024/02/13 08:35:19;;;;;;;12.87;4.60;;;;;;;;;;5072706;28;20056;-29
2024/02/13 08:37:44;;;;;;;11.23;4.85;;;;;;;;;;5072711;28;20021;-29
2024/02/13 08:40:13;;;;;;;16.30;4.97;;;;;;;;;;5072972;28;20096;-29
2024/02/13 08:42:38;;;;;;;11.45;4.90;;;;;;;;;;5072991;28;20024;-29
2024/02/13 08:45:03;;;;;;;13.82;5.45;;;;;;;;;;5074188;28;20020;-28
2024/02/13 08:47:29;;;;;;;14.30;5.13;;;;;;;;;;5076194;28;20074;-28
2024/02/13 08:49:54;;;;;;;12.13;4.47;;;;;;;;;;5076534;28;20021;-28
2024/02/13 08:52:20;;;;;;;16.15;4.63;;;;;;;;;;5076424;28;20044;-28
2024/02/13 08:54:46;;;;;;;12.50;4.93;;;;;;;;;;5076720;28;20091;-29
2024/02/13 08:57:14;;;;;;;9.80;4.32;;;;;;;;;;5076853;28;20288;-28
2024/02/13 08:59:40;;;;;;;13.32;4.60;;;;;;;;;;5076215;28;20025;-29
2024/02/13 09:02:08;;;;;;;13.25;4.93;;;;;;;;;;5075889;28;20024;-28
2024/02/13 09:04:33;;;;;;;12.35;4.60;;;;;;;;;;5076261;28;20521;-28
2024/02/13 09:06:58;;;;;;;12.83;5.00;;;;;;;;;;5075727;28;20131;-28
2024/02/13 09:09:25;;;;;;;10.57;4.50;;;;;;;;;;5076429;28;20262;-29
2024/02/13 09:11:50;;;;;;;13.25;4.47;;;;;;;;;;5075861;28;20263;-29
2024/02/13 09:14:15;;;;;;;12.77;4.70;;;;;;;;;;5075803;28;20020;-28
2024/02/13 09:16:40;;;;;;;13.33;4.27;;;;;;;;;;5076203;28;20027;-29
2024/02/13 09:19:07;;;;;;;12.70;4.03;;;;;;;;;;5075862;28;20749;-28
2024/02/13 09:21:32;;;;;;;10.38;4.05;;;;;;;;;;5075596;28;20030;-28
2024/02/13 09:23:57;;;;;;;12.43;4.20;;;;;;;;;;5076238;28;20047;-29
2024/02/13 09:26:23;;;;;;;12.23;4.60;;;;;;;;;;5075607;28;20254;-29
2024/02/13 09:28:48;;;;;;;9.40;3.75;;;;;;;;;;5075464;28;20730;-29
2024/02/13 09:31:16;;;;;;;11.03;3.90;;;;;;;;;;5075686;28;20048;-28
2024/02/13 09:33:41;;;;;;;13.27;3.97;;;;;;;;;;5075693;28;20262;-29
2024/02/13 09:36:07;;;;;;;8.30;3.70;;;;;;;;;;5075584;28;20418;-29
2024/02/13 09:38:32;;;;;;;13.18;4.18;;;;;;;;;;5075538;28;20027;-28
2024/02/13 09:40:58;;;;;;;8.13;3.70;;;;;;;;;;5075164;28;20036;-29
2024/02/13 09:43:23;;;;;;;9.68;3.65;;;;;;;;;;5074207;28;20266;-28
2024/02/13 09:45:49;;;;;;;8.73;3.50;;;;;;;;;;5075019;28;20476;-29
2024/02/13 09:48:14;;;;;;;13.23;3.70;;;;;;;;;;5075144;28;20020;-29
2024/02/13 09:50:42;;;;;;;9.73;3.53;;;;;;;;;;5075228;28;20028;-29
2024/02/13 09:53:12;;;;;;;7.32;3.25;;;;;;;;;;5073781;28;20073;-29
2024/02/13 09:55:38;;;;;;;10.48;3.50;;;;;;;;;;5074811;28;20408;-29
2024/02/13 09:58:04;;;;;;;9.32;3.50;;;;;;;;;;5074152;28;20027;-29
2024/02/13 10:00:30;;;;;;;9.50;3.53;;;;;;;;;;5073591;28;20032;-29
2024/02/13 10:02:56;;;;;;;9.63;3.13;;;;;;;;;;5075169;28;20017;-29
2024/02/13 10:05:21;;;;;;;10.75;3.58;;;;;;;;;;5073756;28;20061;-29
2024/02/13 10:07:47;;;;;;;8.82;3.50;;;;;;;;;;5074547;28;20044;-29
2024/02/13 10:10:13;;;;;;;11.23;3.07;;;;;;;;;;5074728;28;20025;-28
2024/02/13 10:12:48;;;;;;;9.43;3.30;;;;;;;;;;5074510;28;20044;-29
2024/02/13 10:15:13;;;;;;;7.68;3.03;;;;;;;;;;5075064;28;20025;-29
2024/02/13 10:17:38;;;;;;;9.17;3.20;;;;;;;;;;5074489;28;20032;-29
2024/02/13 10:20:09;;;;;;;13.40;3.28;;;;;;;;;;5074663;28;20021;-29
2024/02/13 10:22:34;;;;;;;10.02;3.22;;;;;;;;;;5074728;28;20459;-32
2024/02/13 10:25:00;;;;;;;9.70;3.13;;;;;;;;;;5074355;28;20020;-29
2024/02/13 10:27:27;;;;;;;10.85;3.08;;;;;;;;;;5074668;28;20180;-29
2024/02/13 10:29:52;;;;;;;9.40;3.03;;;;;;;;;;5074597;28;20016;-29
2024/02/13 10:32:17;;;;;;;12.20;3.47;;;;;;;;;;5074523;28;20370;-29
2024/02/13 10:34:42;;;;;;;8.20;2.90;;;;;;;;;;5074821;28;20024;-29
2024/02/13 10:37:10;;;;;;;9.50;3.03;;;;;;;;;;5074469;28;20043;-28
2024/02/13 10:39:36;;;;;;;9.77;2.97;;;;;;;;;;5074037;28;20028;-29
2024/02/13 10:42:05;;;;;;;10.85;3.08;;;;;;;;;;5074318;28;20009;-29
2024/02/13 10:44:38;;;;;;;8.73;2.85;;;;;;;;;;5074747;28;20012;-29
2024/02/13 10:47:05;;;;;;;9.77;3.03;;;;;;;;;;5073973;28;20016;-28
2024/02/13 10:49:37;;;;;;;10.00;2.80;;;;;;;;;;5074113;28;20447;-29
2024/02/13 10:52:05;;;;;;;8.82;3.17;;;;;;;;;;5074048;28;20081;-29
2024/02/13 10:54:31;;;;;;;11.48;2.72;;;;;;;;;;5074095;28;20086;-29
2024/02/13 10:56:57;;;;;;;7.45;2.80;;;;;;;;;;5074241;28;20021;-28
2024/02/13 10:59:22;;;;;;;9.82;2.83;;;;;;;;;;5074242;28;20413;-29
2024/02/13 11:01:48;;;;;;;12.82;2.80;;;;;;;;;;5073646;28;20099;-28
2024/02/13 11:04:15;;;;;;;8.20;3.05;;;;;;;;;;5074199;28;20036;-28
2024/02/13 11:06:41;;;;;;;8.05;3.03;;;;;;;;;;5073513;28;20041;-29
2024/02/13 11:09:12;;;;;;;9.18;3.17;;;;;;;;;;5073472;28;20032;-28
2024/02/13 11:11:37;;;;;;;9.07;3.03;;;;;;;;;;5074032;28;20020;-28
2024/02/13 11:14:13;;;;;;;8.25;3.13;;;;;;;;;;5072606;28;20540;-28
2024/02/13 11:16:38;;;;;;;11.82;3.28;;;;;;;;;;5073761;28;20016;-28
2024/02/13 11:19:03;;;;;;;10.67;2.87;;;;;;;;;;5073967;28;20432;-28
2024/02/13 11:21:28;;;;;;;10.90;2.80;;;;;;;;;;5073302;28;20273;-28
2024/02/13 11:24:00;;;;;;;8.13;2.63;;;;;;;;;;5073790;28;20251;-28
2024/02/13 11:26:32;;;;;;;9.10;2.60;;;;;;;;;;5073365;28;20410;-28
2024/02/13 11:29:09;;;;;;;9.13;3.03;;;;;;;;;;5072889;28;20095;-28
2024/02/13 11:31:34;;;;;;;7.65;2.42;;;;;;;;;;5073223;28;20028;-28
2024/02/13 11:34:01;;;;;;;7.60;2.73;;;;;;;;;;5072939;28;20078;-28
2024/02/13 11:36:26;;;;;;;8.32;2.72;;;;;;;;;;5073334;28;20259;-28
2024/02/13 11:38:57;;;;;;;7.20;2.90;;;;;;;;;;5073175;28;20028;-28
2024/02/13 11:41:22;;;;;;;7.40;2.70;;;;;;;;;;5072894;28;20102;-28
2024/02/13 11:43:48;;;;;;;7.47;2.90;;;;;;;;;;5072980;28;20021;-28
2024/02/13 11:46:13;;;;;;;5.93;2.80;;;;;;;;;;5072962;28;20486;-28
2024/02/13 11:48:39;;;;;;;6.87;2.70;;;;;;;;;;5073655;28;20017;-28
2024/02/13 11:51:05;;;;;;;7.28;2.90;;;;;;;;;;5073449;28;20017;-29
2024/02/13 11:53:30;;;;;;;11.43;2.63;;;;;;;;;;5072992;28;20379;-28
2024/02/13 11:55:56;;;;;;;6.05;2.33;;;;;;;;;;5073384;28;20032;-28
2024/02/13 11:58:22;;;;;;;6.75;2.50;;;;;;;;;;5073006;28;20024;-28
2024/02/13 12:01:05;;;;;;;6.43;2.33;;;;;;;;;;5072928;28;20532;-28
2024/02/13 12:03:32;;;;;;;11.43;2.88;;;;;;;;;;5073082;28;20071;-29
2024/02/13 12:05:59;;;;;;;6.60;2.58;;;;;;;;;;5072799;28;20108;-28
2024/02/13 12:08:24;;;;;;;7.05;2.30;;;;;;;;;;5072957;28;20464;-28
2024/02/13 12:10:50;;;;;;;11.02;2.80;;;;;;;;;;5073179;28;20030;-28
2024/02/13 12:13:17;;;;;;;8.25;2.65;;;;;;;;;;5073100;28;20021;-31
2024/02/13 12:15:44;;;;;;;9.27;2.25;;;;;;;;;;5073210;28;20438;-28
2024/02/13 12:18:11;;;;;;;9.40;2.75;;;;;;;;;;5072938;28;20127;-28
2024/02/13 12:20:37;;;;;;;9.15;2.65;;;;;;;;;;5075302;28;20025;-28
2024/02/13 12:23:05;;;;;;;6.45;2.05;;;;;;;;;;5076665;28;20525;-28
2024/02/13 12:25:31;;;;;;;9.85;2.33;;;;;;;;;;5076909;28;20027;-27
2024/02/13 12:28:00;;;;;;;5.47;2.30;;;;;;;;;;5076628;28;20418;-28
2024/02/13 12:30:26;;;;;;;8.63;2.50;;;;;;;;;;5075582;28;20095;-29
2024/02/13 12:32:51;;;;;;;8.02;2.70;;;;;;;;;;5076457;28;20059;-28
2024/02/13 12:35:21;;;;;;;10.90;2.80;;;;;;;;;;5076384;28;20510;-28
2024/02/13 12:37:53;;;;;;;8.98;2.45;;;;;;;;;;5077442;28;20024;-27
2024/02/13 12:40:18;;;;;;;8.35;2.50;;;;;;;;;;5076193;28;20013;-28
2024/02/13 12:42:43;;;;;;;6.93;2.80;;;;;;;;;;5076570;28;20028;-28
2024/02/13 12:45:09;;;;;;;8.50;2.40;;;;;;;;;;5076450;28;20052;-28
2024/02/13 12:47:35;;;;;;;9.27;2.83;;;;;;;;;;5076530;28;20409;-28
2024/02/13 12:50:01;;;;;;;7.75;2.22;;;;;;;;;;5076187;28;20021;-28
2024/02/13 12:52:27;;;;;;;7.10;2.33;;;;;;;;;;5076467;28;20016;-28
2024/02/13 12:54:54;;;;;;;7.25;2.60;;;;;;;;;;5076228;28;20472;-28
2024/02/13 12:57:20;;;;;;;6.93;2.60;;;;;;;;;;5075996;28;20020;-29
2024/02/13 12:59:45;;;;;;;8.13;2.33;;;;;;;;;;5074280;28;20399;-28
2024/02/13 13:02:13;;;;;;;5.57;2.10;;;;;;;;;;5073913;28;20013;-28
2024/02/13 13:04:39;;;;;;;6.78;2.10;;;;;;;;;;5073888;28;20338;-28
2024/02/13 13:07:05;;;;;;;6.57;2.67;;;;;;;;;;5073727;28;20171;-28
2024/02/13 13:09:31;;;;;;;6.03;2.30;;;;;;;;;;5073995;28;20023;-28
2024/02/13 13:11:56;;;;;;;8.23;2.70;;;;;;;;;;5073465;28;20020;-28
2024/02/13 13:14:21;;;;;;;7.07;2.75;;;;;;;;;;5073590;28;20031;-28
2024/02/13 13:16:47;;;;;;;10.80;2.70;;;;;;;;;;5073632;28;20410;-28
2024/02/13 13:19:13;;;;;;;5.28;2.35;;;;;;;;;;5075321;28;20271;-28
2024/02/13 13:21:39;;;;;;;6.65;2.65;;;;;;;;;;5075891;28;20025;-28
2024/02/13 13:24:05;;;;;;;6.18;2.63;;;;;;;;;;5075756;28;20040;-28
2024/02/13 13:26:33;;;;;;;12.30;2.88;;;;;;;;;;5075749;28;20067;-28
2024/02/13 13:29:03;;;;;;;9.00;2.60;;;;;;;;;;5075854;28;20357;-28
2024/02/13 13:31:31;;;;;;;11.93;2.72;;;;;;;;;;5073550;28;20028;-28
2024/02/13 13:33:56;;;;;;;7.32;2.60;;;;;;;;;;5076192;28;20047;-28
2024/02/13 13:36:21;;;;;;;7.80;2.60;;;;;;;;;;5075946;28;20055;-28
2024/02/13 13:38:47;;;;;;;9.27;2.67;;;;;;;;;;5074042;28;20316;-28
2024/02/13 13:41:14;;;;;;;7.07;2.60;;;;;;;;;;5075079;28;20366;-28
2024/02/13 13:43:39;;;;;;;6.88;2.50;;;;;;;;;;5075464;28;20396;-28
2024/02/13 13:46:05;;;;;;;11.52;3.22;;;;;;;;;;5075514;28;20142;-28
2024/02/13 13:48:34;;;;;;;7.07;2.40;;;;;;;;;;5075327;28;20024;-28
2024/02/13 13:51:01;;;;;;;8.18;2.35;;;;;;;;;;5075355;28;20395;-28
2024/02/13 13:53:26;;;;;;;6.82;2.58;;;;;;;;;;5075061;28;20028;-28
2024/02/13 13:55:51;;;;;;;7.07;3.15;;;;;;;;;;5075016;28;20017;-28
2024/02/13 13:58:16;;;;;;;9.60;2.58;;;;;;;;;;5074938;28;20417;-28
2024/02/13 14:00:43;;;;;;;6.50;2.40;;;;;;;;;;5075017;28;20103;-28
2024/02/13 14:03:09;;;;;;;10.23;2.50;;;;;;;;;;5074846;28;20395;-28
2024/02/13 14:05:36;;;;;;;8.68;2.75;;;;;;;;;;5074936;28;20028;-28
2024/02/13 14:08:05;;;;;;;5.55;2.45;;;;;;;;;;5074962;28;20027;-28
2024/02/13 14:10:32;;;;;;;6.57;2.50;;;;;;;;;;5075024;28;20043;-28
2024/02/13 14:12:58;;;;;;;10.18;2.40;;;;;;;;;;5074573;28;20021;-27
2024/02/13 14:15:24;;;;;;;6.78;2.60;;;;;;;;;;5074592;28;20027;-27
2024/02/13 14:17:49;;;;;;;9.65;2.67;;;;;;;;;;5074493;28;20032;-28
2024/02/13 14:20:14;;;;;;;9.20;2.47;;;;;;;;;;5074108;28;20028;-28
2024/02/13 14:22:41;;;;;;;6.65;2.58;;;;;;;;;;5074272;28;20093;-28
2024/02/13 14:25:07;;;;;;;6.15;2.47;;;;;;;;;;5074598;28;20009;-28
2024/02/13 14:27:32;;;;;;;8.60;2.15;;;;;;;;;;5074436;28;20395;-28